createdAt,value
2017-04-08T00:00:41.525Z,20.74
2017-04-08T00:01:51.769Z,20.69
2017-04-08T00:03:02.005Z,20.62
2017-04-08T00:04:12.252Z,20.74
2017-04-08T00:05:22.489Z,20.7
2017-04-08T00:06:32.413Z,20.67
2017-04-08T00:07:42.337Z,20.7
2017-04-08T00:08:52.258Z,20.62
2017-04-08T00:10:02.210Z,20.66
2017-04-08T00:11:12.454Z,20.59
2017-04-08T00:12:22.696Z,20.59
2017-04-08T00:13:32.938Z,20.58
2017-04-08T00:14:42.890Z,20.59
2017-04-08T00:15:52.831Z,20.59
2017-04-08T00:17:03.072Z,20.62
2017-04-08T00:18:13.326Z,20.64
2017-04-08T00:19:23.610Z,20.61
2017-04-08T00:20:33.537Z,20.62
2017-04-08T00:21:43.462Z,20.62
2017-04-08T00:22:53.716Z,20.61
2017-04-08T00:24:03.952Z,20.61
2017-04-08T00:25:13.563Z,20.59
2017-04-08T00:26:23.804Z,20.62
2017-04-08T00:27:33.423Z,20.61
2017-04-08T00:28:43.349Z,20.57
2017-04-08T00:29:53.283Z,20.62
2017-04-08T00:31:03.522Z,20.64
2017-04-08T00:32:13.445Z,20.61
2017-04-08T00:33:23.691Z,20.59
2017-04-08T00:34:33.618Z,20.62
2017-04-08T00:35:43.547Z,20.67
2017-04-08T00:36:53.471Z,20.54
2017-04-08T00:38:03.709Z,20.61
2017-04-08T00:39:13.634Z,20.57
2017-04-08T00:40:23.566Z,20.59
2017-04-08T00:41:33.493Z,20.59
2017-04-08T00:42:43.426Z,20.64
2017-04-08T00:43:53.357Z,20.66
2017-04-08T00:45:03.603Z,20.61
2017-04-08T00:46:13.847Z,20.59
2017-04-08T00:47:23.786Z,20.62
2017-04-08T00:48:34.025Z,20.61
2017-04-08T00:49:43.959Z,20.59
2017-04-08T00:50:53.570Z,20.59
2017-04-08T00:52:03.181Z,20.66
2017-04-08T00:53:13.109Z,20.66
2017-04-08T00:54:22.733Z,20.59
2017-04-08T00:55:32.663Z,20.58
2017-04-08T00:56:42.589Z,20.61
2017-04-08T00:57:52.517Z,20.62
2017-04-08T00:59:02.132Z,20.54
2017-04-08T01:00:12.054Z,20.58
2017-04-08T01:01:21.984Z,20.51
2017-04-08T01:02:31.918Z,20.54
2017-04-08T01:03:42.163Z,20.57
2017-04-08T01:04:52.407Z,20.47
2017-04-08T01:06:02.337Z,20.5
2017-04-08T01:07:12.586Z,20.47
2017-04-08T01:08:22.518Z,20.55
2017-04-08T01:09:32.755Z,20.55
2017-04-08T01:10:42.998Z,20.59
2017-04-08T01:11:52.926Z,20.58
2017-04-08T01:13:03.171Z,20.48
2017-04-08T01:14:13.414Z,20.48
2017-04-08T01:15:23.341Z,20.5
2017-04-08T01:16:33.583Z,20.47
2017-04-08T01:17:43.509Z,20.47
2017-04-08T01:18:53.780Z,20.51
2017-04-08T01:20:04.027Z,20.54
2017-04-08T01:21:13.957Z,20.47
2017-04-08T01:22:23.897Z,20.5
2017-04-08T01:23:33.829Z,20.51
2017-04-08T01:24:44.074Z,20.51
2017-04-08T01:25:53.690Z,20.57
2017-04-08T01:27:03.932Z,20.51
2017-04-08T01:28:13.867Z,20.51
2017-04-08T01:29:23.796Z,20.47
2017-04-08T01:30:34.033Z,20.51
2017-04-08T01:31:44.269Z,20.51
2017-04-08T01:32:54.509Z,20.48
2017-04-08T01:34:04.755Z,20.5
2017-04-08T01:35:14.992Z,20.48
2017-04-08T01:36:25.233Z,20.48
2017-04-08T01:37:35.474Z,20.55
2017-04-08T01:38:45.713Z,20.52
2017-04-08T01:39:55.668Z,20.48
2017-04-08T01:41:05.615Z,20.5
2017-04-08T01:42:15.849Z,20.5
2017-04-08T01:43:26.093Z,20.47
2017-04-08T01:44:36.024Z,20.48
2017-04-08T01:45:46.266Z,20.5
2017-04-08T01:46:56.511Z,20.48
2017-04-08T01:48:06.435Z,20.42
2017-04-08T01:49:16.705Z,20.51
2017-04-08T01:50:26.947Z,20.51
2017-04-08T01:51:37.187Z,20.48
2017-04-08T01:52:47.427Z,20.5
2017-04-08T01:53:57.670Z,20.48
2017-04-08T01:55:07.914Z,20.48
2017-04-08T01:56:17.843Z,20.51
2017-04-08T01:57:28.085Z,20.5
2017-04-08T01:58:38.330Z,20.52
2017-04-08T01:59:48.573Z,20.47
2017-04-08T02:00:58.503Z,20.52
2017-04-08T02:02:08.435Z,20.51
2017-04-08T02:03:18.677Z,20.47
2017-04-08T02:04:28.605Z,20.51
2017-04-08T02:05:38.856Z,20.42
2017-04-08T02:06:49.123Z,20.42
2017-04-08T02:07:59.054Z,20.48
2017-04-08T02:09:09.291Z,20.48
2017-04-08T02:10:19.215Z,20.42
2017-04-08T02:11:29.147Z,20.48
2017-04-08T02:12:39.077Z,20.5
2017-04-08T02:13:49.037Z,20.51
2017-04-08T02:14:59.278Z,20.5
2017-04-08T02:16:08.893Z,20.52
2017-04-08T02:17:19.137Z,20.42
2017-04-08T02:18:29.067Z,20.51
2017-04-08T02:19:38.990Z,20.52
2017-04-08T02:20:49.230Z,20.51
2017-04-08T02:21:58.847Z,20.47
2017-04-08T02:23:08.773Z,20.48
2017-04-08T02:24:18.418Z,20.51
2017-04-08T02:25:28.664Z,20.51
2017-04-08T02:26:38.906Z,20.52
2017-04-08T02:27:48.833Z,20.47
2017-04-08T02:28:59.072Z,20.48
2017-04-08T02:30:09.003Z,20.41
2017-04-08T02:31:18.933Z,20.48
2017-04-08T02:32:29.177Z,20.48
2017-04-08T02:33:39.415Z,20.5
2017-04-08T02:34:49.346Z,20.48
2017-04-08T02:35:59.271Z,20.47
2017-04-08T02:37:09.198Z,20.43
2017-04-08T02:38:18.810Z,20.48
2017-04-08T02:39:29.085Z,20.48
2017-04-08T02:40:38.705Z,20.41
2017-04-08T02:41:48.626Z,20.42
2017-04-08T02:42:58.565Z,20.43
2017-04-08T02:44:08.494Z,20.43
2017-04-08T02:45:18.738Z,20.38
2017-04-08T02:46:28.982Z,20.48
2017-04-08T02:47:38.902Z,20.43
2017-04-08T02:48:49.141Z,20.48
2017-04-08T02:49:59.382Z,20.43
2017-04-08T02:51:09.313Z,20.43
2017-04-08T02:52:19.556Z,20.48
2017-04-08T02:53:29.797Z,20.36
2017-04-08T02:54:40.034Z,20.5
2017-04-08T02:55:49.963Z,20.48
2017-04-08T02:56:59.888Z,20.47
2017-04-08T02:58:09.814Z,20.43
2017-04-08T02:59:20.047Z,20.42
2017-04-08T03:00:30.284Z,20.43
2017-04-08T03:01:40.206Z,20.48
2017-04-08T03:02:50.456Z,20.42
2017-04-08T03:04:00.386Z,20.38
2017-04-08T03:05:10.309Z,20.48
2017-04-08T03:06:20.236Z,20.48
2017-04-08T03:07:30.165Z,20.42
2017-04-08T03:08:40.098Z,20.48
2017-04-08T03:09:50.021Z,20.39
2017-04-08T03:10:59.949Z,20.47
2017-04-08T03:12:10.191Z,20.38
2017-04-08T03:13:20.437Z,20.41
2017-04-08T03:14:30.710Z,20.41
2017-04-08T03:15:40.946Z,20.38
2017-04-08T03:16:50.566Z,20.39
2017-04-08T03:18:00.801Z,20.38
2017-04-08T03:19:11.080Z,20.36
2017-04-08T03:20:21.319Z,20.42
2017-04-08T03:21:31.249Z,20.36
2017-04-08T03:22:41.488Z,20.42
2017-04-08T03:23:51.737Z,20.38
2017-04-08T03:25:01.663Z,20.39
2017-04-08T03:26:11.585Z,20.38
2017-04-08T03:27:21.539Z,20.39
2017-04-08T03:28:31.773Z,20.36
2017-04-08T03:29:41.741Z,20.36
2017-04-08T03:30:51.356Z,20.38
2017-04-08T03:32:01.593Z,20.39
2017-04-08T03:33:11.208Z,20.35
2017-04-08T03:34:21.142Z,20.38
2017-04-08T03:35:31.398Z,20.29
2017-04-08T03:36:41.352Z,20.39
2017-04-08T03:37:51.596Z,20.35
2017-04-08T03:39:01.830Z,20.39
2017-04-08T03:40:12.071Z,20.36
2017-04-08T03:41:21.994Z,20.38
2017-04-08T03:42:32.237Z,20.33
2017-04-08T03:43:42.160Z,20.35
2017-04-08T03:44:52.088Z,20.38
2017-04-08T03:46:02.325Z,20.35
2017-04-08T03:47:12.262Z,20.35
2017-04-08T03:48:22.541Z,20.28
2017-04-08T03:49:32.465Z,20.35
2017-04-08T03:50:42.392Z,20.31
2017-04-08T03:51:52.320Z,20.39
2017-04-08T03:53:02.252Z,20.33
2017-04-08T03:54:12.185Z,20.35
2017-04-08T03:55:22.110Z,20.32
2017-04-08T03:56:32.350Z,20.35
2017-04-08T03:57:42.590Z,20.35
2017-04-08T03:58:52.834Z,20.31
2017-04-08T04:00:03.076Z,20.31
2017-04-08T04:01:12.385Z,20.32
2017-04-08T04:02:22.325Z,20.31
2017-04-08T04:03:32.569Z,20.29
2017-04-08T04:04:42.806Z,20.32
2017-04-08T04:05:52.734Z,20.38
2017-04-08T04:07:02.354Z,20.31
2017-04-08T04:08:12.592Z,20.32
2017-04-08T04:09:22.214Z,20.35
2017-04-08T04:10:32.458Z,20.31
2017-04-08T04:11:42.384Z,20.29
2017-04-08T04:12:52.000Z,20.35
2017-04-08T04:14:01.924Z,20.36
2017-04-08T04:15:11.883Z,20.31
2017-04-08T04:16:21.493Z,20.33
2017-04-08T04:17:31.734Z,20.31
2017-04-08T04:18:41.968Z,20.41
2017-04-08T04:19:52.210Z,20.32
2017-04-08T04:21:02.461Z,20.36
2017-04-08T04:22:12.393Z,20.36
2017-04-08T04:23:22.327Z,20.33
2017-04-08T04:24:32.259Z,20.33
2017-04-08T04:25:42.505Z,20.31
2017-04-08T04:26:52.747Z,20.32
2017-04-08T04:28:02.990Z,20.35
2017-04-08T04:29:12.917Z,20.32
2017-04-08T04:30:23.168Z,20.32
2017-04-08T04:31:33.410Z,20.31
2017-04-08T04:32:43.651Z,20.35
2017-04-08T04:33:53.891Z,20.35
2017-04-08T04:35:04.130Z,20.31
2017-04-08T04:36:14.367Z,20.36
2017-04-08T04:37:24.611Z,20.31
2017-04-08T04:38:34.531Z,20.35
2017-04-08T04:39:44.770Z,20.31
2017-04-08T04:40:54.724Z,20.36
2017-04-08T04:42:04.655Z,20.38
2017-04-08T04:43:14.893Z,20.32
2017-04-08T04:44:24.847Z,20.32
2017-04-08T04:45:35.082Z,20.36
2017-04-08T04:46:45.321Z,20.36
2017-04-08T04:47:55.557Z,20.29
2017-04-08T04:49:05.802Z,20.33
2017-04-08T04:50:15.730Z,20.38
2017-04-08T04:51:25.979Z,20.35
2017-04-08T04:52:35.927Z,20.35
2017-04-08T04:53:46.171Z,20.36
2017-04-08T04:54:56.416Z,20.36
2017-04-08T04:56:06.347Z,20.31
2017-04-08T04:57:16.304Z,20.33
2017-04-08T04:58:26.564Z,20.29
2017-04-08T04:59:36.802Z,20.35
2017-04-08T05:00:46.729Z,20.32
2017-04-08T05:01:56.031Z,20.36
2017-04-08T05:03:06.278Z,20.31
2017-04-08T05:04:16.207Z,20.31
2017-04-08T05:05:25.511Z,20.35
2017-04-08T05:06:35.437Z,20.36
2017-04-08T05:07:45.681Z,20.32
2017-04-08T05:08:55.612Z,20.35
2017-04-08T05:10:05.894Z,20.35
2017-04-08T05:11:15.509Z,20.35
2017-04-08T05:12:25.745Z,20.35
2017-04-08T05:13:35.992Z,20.35
2017-04-08T05:14:46.230Z,20.36
2017-04-08T05:15:56.161Z,20.33
2017-04-08T05:17:06.087Z,20.35
2017-04-08T05:18:16.326Z,20.28
2017-04-08T05:19:26.252Z,20.31
2017-04-08T05:20:36.494Z,20.32
2017-04-08T05:21:46.430Z,20.35
2017-04-08T05:22:56.677Z,20.28
2017-04-08T05:24:06.630Z,20.31
2017-04-08T05:25:16.244Z,20.33
2017-04-08T05:26:26.169Z,20.42
2017-04-08T05:27:36.093Z,20.47
2017-04-08T05:28:46.334Z,20.36
2017-04-08T05:29:56.574Z,20.41
2017-04-08T05:31:06.819Z,20.36
2017-04-08T05:32:17.061Z,20.36
2017-04-08T05:33:26.988Z,20.36
2017-04-08T05:34:37.221Z,20.38
2017-04-08T05:35:47.467Z,20.38
2017-04-08T05:36:57.087Z,20.36
2017-04-08T05:38:07.013Z,20.51
2017-04-08T05:39:16.938Z,20.48
2017-04-08T05:40:26.862Z,20.48
2017-04-08T05:41:36.784Z,20.57
2017-04-08T05:42:47.034Z,20.64
2017-04-08T05:43:56.646Z,20.62
2017-04-08T05:45:06.886Z,20.5
2017-04-08T05:46:16.496Z,20.35
2017-04-08T05:47:26.745Z,19.1
2017-04-08T05:48:36.985Z,18.63
2017-04-08T05:49:46.919Z,18.26
2017-04-08T05:50:57.162Z,18.05
2017-04-08T05:52:07.089Z,18.18
2017-04-08T05:53:17.328Z,17.99
2017-04-08T05:54:27.262Z,17.78
2017-04-08T05:55:37.190Z,17.93
2017-04-08T05:56:47.435Z,18.47
2017-04-08T05:57:57.673Z,18.81
2017-04-08T05:59:07.596Z,19.1
2017-04-08T06:00:17.835Z,19.33
2017-04-08T06:01:27.766Z,19.63
2017-04-08T06:02:38.001Z,19.69
2017-04-08T06:03:48.246Z,19.83
2017-04-08T06:04:57.866Z,20.02
2017-04-08T06:06:07.793Z,19.96
2017-04-08T06:07:17.717Z,19.98
2017-04-08T06:08:27.644Z,20.05
2017-04-08T06:09:37.576Z,20.1
2017-04-08T06:10:47.509Z,20.14
2017-04-08T06:11:57.751Z,20.2
2017-04-08T06:13:07.995Z,20.18
2017-04-08T06:14:17.921Z,20.14
2017-04-08T06:15:28.169Z,20.21
2017-04-08T06:16:38.413Z,20.23
2017-04-08T06:17:48.668Z,20.33
2017-04-08T06:18:58.626Z,20.32
2017-04-08T06:20:08.869Z,20.32
2017-04-08T06:21:19.106Z,20.32
2017-04-08T06:22:29.348Z,20.42
2017-04-08T06:23:39.614Z,20.48
2017-04-08T06:24:49.858Z,20.42
2017-04-08T06:25:59.468Z,20.61
2017-04-08T06:27:09.709Z,20.55
2017-04-08T06:28:19.945Z,19.69
2017-04-08T06:29:30.187Z,19.14
2017-04-08T06:30:40.148Z,18.94
2017-04-08T06:31:50.078Z,18.58
2017-04-08T06:33:00.320Z,18.44
2017-04-08T06:34:10.555Z,18.32
2017-04-08T06:35:20.793Z,18.32
2017-04-08T06:36:31.036Z,18.07
2017-04-08T06:37:40.649Z,17.97
2017-04-08T06:38:50.889Z,17.78
2017-04-08T06:40:00.859Z,17.71
2017-04-08T06:41:11.110Z,17.77
2017-04-08T06:42:21.345Z,17.82
2017-04-08T06:43:31.277Z,17.79
2017-04-08T06:44:41.514Z,17.82
2017-04-08T06:45:51.773Z,18.02
2017-04-08T06:47:02.017Z,18.02
2017-04-08T06:48:12.262Z,18.11
2017-04-08T06:49:22.514Z,18.11
2017-04-08T06:50:32.445Z,17.97
2017-04-08T06:51:42.054Z,17.82
2017-04-08T06:52:52.292Z,17.82
2017-04-08T06:54:02.536Z,17.81
2017-04-08T06:55:12.779Z,17.72
2017-04-08T06:56:22.709Z,17.71
2017-04-08T06:57:32.953Z,17.64
2017-04-08T06:58:43.196Z,17.54
2017-04-08T06:59:53.123Z,17.44
2017-04-08T07:01:03.061Z,17.3
2017-04-08T07:02:13.001Z,17.34
2017-04-08T07:03:22.616Z,17.26
2017-04-08T07:04:32.863Z,17.16
2017-04-08T07:05:42.789Z,17.15
2017-04-08T07:06:53.026Z,17.3
2017-04-08T07:08:02.955Z,17.11
2017-04-08T07:09:12.896Z,17.04
2017-04-08T07:10:23.133Z,16.85
2017-04-08T07:11:32.440Z,16.81
2017-04-08T07:12:42.683Z,16.89
2017-04-08T07:13:52.634Z,17.03
2017-04-08T07:15:02.899Z,16.86
2017-04-08T07:16:12.511Z,16.91
2017-04-08T07:17:22.752Z,16.98
2017-04-08T07:18:32.991Z,17.36
2017-04-08T07:19:42.908Z,17.82
2017-04-08T07:20:53.139Z,18.2
2017-04-08T07:22:03.368Z,18.41
2017-04-08T07:23:13.299Z,18.6
2017-04-08T07:24:23.225Z,18.75
2017-04-08T07:25:33.159Z,18.98
2017-04-08T07:26:43.401Z,18.99
2017-04-08T07:27:53.343Z,19.07
2017-04-08T07:29:03.264Z,19.23
2017-04-08T07:30:13.509Z,19.31
2017-04-08T07:31:23.127Z,19.39
2017-04-08T07:32:32.745Z,19.47
2017-04-08T07:33:42.979Z,19.5
2017-04-08T07:34:52.587Z,19.54
2017-04-08T07:36:02.818Z,19.51
2017-04-08T07:37:13.059Z,19.59
2017-04-08T07:38:23.297Z,19.63
2017-04-08T07:39:33.537Z,19.71
2017-04-08T07:40:43.462Z,19.78
2017-04-08T07:41:53.393Z,19.76
2017-04-08T07:43:03.330Z,19.87
2017-04-08T07:44:13.252Z,19.8
2017-04-08T07:45:23.179Z,19.81
2017-04-08T07:46:33.423Z,19.81
2017-04-08T07:47:43.350Z,19.81
2017-04-08T07:48:53.285Z,19.83
2017-04-08T07:50:03.217Z,19.81
2017-04-08T07:51:13.454Z,19.81
2017-04-08T07:52:23.694Z,19.84
2017-04-08T07:53:33.623Z,19.87
2017-04-08T07:54:43.863Z,19.87
2017-04-08T07:55:54.108Z,19.83
2017-04-08T07:57:04.340Z,19.92
2017-04-08T07:58:14.584Z,19.95
2017-04-08T07:59:24.562Z,19.94
2017-04-08T08:00:34.490Z,19.95
2017-04-08T08:01:44.726Z,19.94
2017-04-08T08:02:54.684Z,19.95
2017-04-08T08:04:04.940Z,19.96
2017-04-08T08:05:14.871Z,19.92
2017-04-08T08:06:25.111Z,20.05
2017-04-08T08:07:35.040Z,20.06
2017-04-08T08:08:45.279Z,20.06
2017-04-08T08:09:55.525Z,20.06
2017-04-08T08:11:05.776Z,20.05
2017-04-08T08:12:16.009Z,20.13
2017-04-08T08:13:25.936Z,20.18
2017-04-08T08:14:35.550Z,20.16
2017-04-08T08:15:45.796Z,20.16
2017-04-08T08:16:55.721Z,20.21
2017-04-08T08:18:05.959Z,20.2
2017-04-08T08:19:16.194Z,20.28
2017-04-08T08:20:26.437Z,20.26
2017-04-08T08:21:36.678Z,20.24
2017-04-08T08:22:46.919Z,20.29
2017-04-08T08:23:56.851Z,20.24
2017-04-08T08:25:07.091Z,20.13
2017-04-08T08:26:17.342Z,20.26
2017-04-08T08:27:27.274Z,20.23
2017-04-08T08:28:36.893Z,20.21
2017-04-08T08:29:46.821Z,20.2
2017-04-08T08:30:57.074Z,20.23
2017-04-08T08:32:07.318Z,20.26
2017-04-08T08:33:17.239Z,20.23
2017-04-08T08:34:27.176Z,20.24
2017-04-08T08:35:36.789Z,20.28
2017-04-08T08:36:46.720Z,20.28
2017-04-08T08:37:56.963Z,20.26
2017-04-08T08:39:07.211Z,20.26
2017-04-08T08:40:16.833Z,20.29
2017-04-08T08:41:27.071Z,20.36
2017-04-08T08:42:37.315Z,20.31
2017-04-08T08:43:47.560Z,20.32
2017-04-08T08:44:57.488Z,20.33
2017-04-08T08:46:07.731Z,20.32
2017-04-08T08:47:17.964Z,20.33
2017-04-08T08:48:27.583Z,20.33
2017-04-08T08:49:37.521Z,20.29
2017-04-08T08:50:47.451Z,20.32
2017-04-08T08:51:57.376Z,20.38
2017-04-08T08:53:06.998Z,20.35
2017-04-08T08:54:17.235Z,20.36
2017-04-08T08:55:27.473Z,20.52
2017-04-08T08:56:37.712Z,20.47
2017-04-08T08:57:47.952Z,20.51
2017-04-08T08:58:58.190Z,20.54
2017-04-08T09:00:08.128Z,20.59
2017-04-08T09:01:18.060Z,20.58
2017-04-08T09:02:27.673Z,20.57
2017-04-08T09:03:37.910Z,20.61
2017-04-08T09:04:47.837Z,20.77
2017-04-08T09:05:57.463Z,20.76
2017-04-08T09:07:07.397Z,20.77
2017-04-08T09:08:17.652Z,20.74
2017-04-08T09:09:27.582Z,20.82
2017-04-08T09:10:37.511Z,20.72
2017-04-08T09:11:47.443Z,20.74
2017-04-08T09:12:57.693Z,20.66
2017-04-08T09:14:07.933Z,20.62
2017-04-08T09:15:17.872Z,20.64
2017-04-08T09:16:27.488Z,20.7
2017-04-08T09:17:37.731Z,20.73
2017-04-08T09:18:47.973Z,20.77
2017-04-08T09:19:57.920Z,20.69
2017-04-08T09:21:07.862Z,20.84
2017-04-08T09:22:18.107Z,20.7
2017-04-08T09:23:27.716Z,20.77
2017-04-08T09:24:37.640Z,20.76
2017-04-08T09:25:47.882Z,20.76
2017-04-08T09:26:57.818Z,20.8
2017-04-08T09:28:07.440Z,20.82
2017-04-08T09:29:17.677Z,20.77
2017-04-08T09:30:27.602Z,20.79
2017-04-08T09:31:37.550Z,20.8
2017-04-08T09:32:47.784Z,20.69
2017-04-08T09:33:58.029Z,20.74
2017-04-08T09:35:08.297Z,20.88
2017-04-08T09:36:18.562Z,20.76
2017-04-08T09:37:28.181Z,20.84
2017-04-08T09:38:37.800Z,20.82
2017-04-08T09:39:47.738Z,20.84
2017-04-08T09:40:57.980Z,20.88
2017-04-08T09:42:08.224Z,20.79
2017-04-08T09:43:18.465Z,20.79
2017-04-08T09:44:28.406Z,20.88
2017-04-08T09:45:38.336Z,20.84
2017-04-08T09:46:48.592Z,20.8
2017-04-08T09:47:58.829Z,20.84
2017-04-08T09:49:09.072Z,20.88
2017-04-08T09:50:19.326Z,20.88
2017-04-08T09:51:28.944Z,20.89
2017-04-08T09:52:39.188Z,20.91
2017-04-08T09:53:49.439Z,20.89
2017-04-08T09:54:59.686Z,20.95
2017-04-08T09:56:09.612Z,20.82
2017-04-08T09:57:19.848Z,20.89
2017-04-08T09:58:29.532Z,20.92
2017-04-08T09:59:39.154Z,20.97
2017-04-08T10:00:49.081Z,20.98
2017-04-08T10:01:59.322Z,20.97
2017-04-08T10:03:09.570Z,20.94
2017-04-08T10:04:19.813Z,21.07
2017-04-08T10:05:30.051Z,20.97
2017-04-08T10:06:39.983Z,20.95
2017-04-08T10:07:50.226Z,20.95
2017-04-08T10:09:00.162Z,20.92
2017-04-08T10:10:10.087Z,20.97
2017-04-08T10:11:20.332Z,20.98
2017-04-08T10:12:30.570Z,20.92
2017-04-08T10:13:40.812Z,20.95
2017-04-08T10:14:51.051Z,20.97
2017-04-08T10:16:01.286Z,21.01
2017-04-08T10:17:10.900Z,21.04
2017-04-08T10:18:21.137Z,20.98
2017-04-08T10:19:31.070Z,20.97
2017-04-08T10:20:41.030Z,20.97
2017-04-08T10:21:50.973Z,20.99
2017-04-08T10:23:00.900Z,20.92
2017-04-08T10:24:11.143Z,20.99
2017-04-08T10:25:20.758Z,20.94
2017-04-08T10:26:30.687Z,20.95
2017-04-08T10:27:40.968Z,21.03
2017-04-08T10:28:50.893Z,21.06
2017-04-08T10:30:00.825Z,21.09
2017-04-08T10:31:10.751Z,20.95
2017-04-08T10:32:20.997Z,21.06
2017-04-08T10:33:31.263Z,21.03
2017-04-08T10:34:41.199Z,21.06
2017-04-08T10:35:51.440Z,21.03
2017-04-08T10:37:01.363Z,21.1
2017-04-08T10:38:11.292Z,21.1
2017-04-08T10:39:21.218Z,21.03
2017-04-08T10:40:30.830Z,21.12
2017-04-08T10:41:40.751Z,21.07
2017-04-08T10:42:50.687Z,21.04
2017-04-08T10:44:00.945Z,21.03
2017-04-08T10:45:10.882Z,21.04
2017-04-08T10:46:21.120Z,21.1
2017-04-08T10:47:31.364Z,21.12
2017-04-08T10:48:41.296Z,21.09
2017-04-08T10:49:51.222Z,21.1
2017-04-08T10:51:01.468Z,21.12
2017-04-08T10:52:11.399Z,21.09
2017-04-08T10:53:21.326Z,21.1
2017-04-08T10:54:31.565Z,21.1
2017-04-08T10:55:41.177Z,21.09
2017-04-08T10:56:51.109Z,21.1
2017-04-08T10:58:01.355Z,21.09
2017-04-08T10:59:10.655Z,21.1
2017-04-08T11:00:20.890Z,21.06
2017-04-08T11:01:30.189Z,21.1
2017-04-08T11:02:40.122Z,21.09
2017-04-08T11:03:50.051Z,21.1
2017-04-08T11:04:59.976Z,21.09
2017-04-08T11:06:09.903Z,21.09
2017-04-08T11:07:20.152Z,21.16
2017-04-08T11:08:30.405Z,21.06
2017-04-08T11:09:40.640Z,21.1
2017-04-08T11:10:50.877Z,21.1
2017-04-08T11:12:00.543Z,21.16
2017-04-08T11:13:10.465Z,21.17
2017-04-08T11:14:20.083Z,21.21
2017-04-08T11:15:30.030Z,21.25
2017-04-08T11:16:40.276Z,21.27
2017-04-08T11:17:50.196Z,21.28
2017-04-08T11:19:00.439Z,21.21
2017-04-08T11:20:10.375Z,21.16
2017-04-08T11:21:20.644Z,21.19
2017-04-08T11:22:30.889Z,21.24
2017-04-08T11:23:40.820Z,21.31
2017-04-08T11:24:50.753Z,21.29
2017-04-08T11:26:00.690Z,21.24
2017-04-08T11:27:10.938Z,21.24
2017-04-08T11:28:21.180Z,21.32
2017-04-08T11:29:31.451Z,21.32
2017-04-08T11:30:41.696Z,21.35
2017-04-08T11:31:51.935Z,21.31
2017-04-08T11:33:02.189Z,21.24
2017-04-08T11:34:12.131Z,21.25
2017-04-08T11:35:22.372Z,21.35
2017-04-08T11:36:32.629Z,21.22
2017-04-08T11:37:42.880Z,21.34
2017-04-08T11:38:52.821Z,21.32
2017-04-08T11:40:03.081Z,21.38
2017-04-08T11:41:13.314Z,21.35
2017-04-08T11:42:23.561Z,21.4
2017-04-08T11:43:33.803Z,21.27
2017-04-08T11:44:44.046Z,21.27
2017-04-08T11:45:53.669Z,21.35
2017-04-08T11:47:03.913Z,21.37
2017-04-08T11:48:14.156Z,21.32
2017-04-08T11:49:24.396Z,21.29
2017-04-08T11:50:33.696Z,21.37
2017-04-08T11:51:43.625Z,21.28
2017-04-08T11:52:53.252Z,21.21
2017-04-08T11:54:02.863Z,21.34
2017-04-08T11:55:13.148Z,21.4
2017-04-08T11:56:23.387Z,21.37
2017-04-08T11:57:33.625Z,21.37
2017-04-08T11:58:43.864Z,21.34
2017-04-08T11:59:53.808Z,21.29
2017-04-08T12:01:04.048Z,21.37
2017-04-08T12:02:14.295Z,21.38
2017-04-08T12:03:24.242Z,21.29
2017-04-08T12:04:34.169Z,21.35
2017-04-08T12:05:44.409Z,21.31
2017-04-08T12:06:54.650Z,21.42
2017-04-08T12:08:04.596Z,21.37
2017-04-08T12:09:14.542Z,21.4
2017-04-08T12:10:24.473Z,21.31
2017-04-08T12:11:34.086Z,21.38
2017-04-08T12:12:44.258Z,21.29
2017-04-08T12:13:54.496Z,21.42
2017-04-08T12:15:04.427Z,21.37
2017-04-08T12:16:14.663Z,21.38
2017-04-08T12:17:24.901Z,21.46
2017-04-08T12:18:34.830Z,21.4
2017-04-08T12:19:44.763Z,21.4
2017-04-08T12:20:54.381Z,21.4
2017-04-08T12:22:04.305Z,21.34
2017-04-08T12:23:14.550Z,21.4
2017-04-08T12:24:24.785Z,21.46
2017-04-08T12:25:34.711Z,21.37
2017-04-08T12:26:44.634Z,21.42
2017-04-08T12:27:54.559Z,21.37
2017-04-08T12:29:04.177Z,21.34
2017-04-08T12:30:14.415Z,21.38
2017-04-08T12:31:24.656Z,21.47
2017-04-08T12:32:34.907Z,21.35
2017-04-08T12:33:45.150Z,21.46
2017-04-08T12:34:55.079Z,21.46
2017-04-08T12:36:05.018Z,21.56
2017-04-08T12:37:15.264Z,21.54
2017-04-08T12:38:25.190Z,21.46
2017-04-08T12:39:35.438Z,21.43
2017-04-08T12:40:45.684Z,21.42
2017-04-08T12:41:55.921Z,21.49
2017-04-08T12:43:05.224Z,21.53
2017-04-08T12:44:15.482Z,21.43
2017-04-08T12:45:25.725Z,21.46
2017-04-08T12:46:35.338Z,21.37
2017-04-08T12:47:45.580Z,21.38
2017-04-08T12:48:55.507Z,21.4
2017-04-08T12:50:05.125Z,21.38
2017-04-08T12:51:15.051Z,21.38
2017-04-08T12:52:24.973Z,21.37
2017-04-08T12:53:35.213Z,21.4
2017-04-08T12:54:45.137Z,21.35
2017-04-08T12:55:55.067Z,21.35
2017-04-08T12:57:04.993Z,21.37
2017-04-08T12:58:15.233Z,21.44
2017-04-08T12:59:24.856Z,21.43
2017-04-08T13:00:34.791Z,21.49
2017-04-08T13:01:44.718Z,21.49
2017-04-08T13:02:54.963Z,21.53
2017-04-08T13:04:05.218Z,21.49
2017-04-08T13:05:15.477Z,21.44
2017-04-08T13:06:25.402Z,21.44
2017-04-08T13:07:35.334Z,21.46
2017-04-08T13:08:45.273Z,21.47
2017-04-08T13:09:55.206Z,21.56
2017-04-08T13:11:05.447Z,21.46
2017-04-08T13:12:15.369Z,21.49
2017-04-08T13:13:24.987Z,21.46
2017-04-08T13:14:35.235Z,21.44
2017-04-08T13:15:45.486Z,21.54
2017-04-08T13:16:55.728Z,21.43
2017-04-08T13:18:05.656Z,21.46
2017-04-08T13:19:15.898Z,21.44
2017-04-08T13:20:25.835Z,21.42
2017-04-08T13:21:36.074Z,21.35
2017-04-08T13:22:45.373Z,21.42
2017-04-08T13:23:54.670Z,21.35
2017-04-08T13:25:04.935Z,21.42
2017-04-08T13:26:15.180Z,21.38
2017-04-08T13:27:25.110Z,21.37
2017-04-08T13:28:35.047Z,21.38
2017-04-08T13:29:45.292Z,21.32
2017-04-08T13:30:55.228Z,21.35
2017-04-08T13:32:05.470Z,21.32
2017-04-08T13:33:15.708Z,21.47
2017-04-08T13:34:25.632Z,21.49
2017-04-08T13:35:35.875Z,21.56
2017-04-08T13:36:45.801Z,21.47
2017-04-08T13:37:56.062Z,21.52
2017-04-08T13:39:06.304Z,21.49
2017-04-08T13:40:16.544Z,21.53
2017-04-08T13:41:26.465Z,21.56
2017-04-08T13:42:36.714Z,21.53
2017-04-08T13:43:46.950Z,21.52
2017-04-08T13:44:56.874Z,21.43
2017-04-08T13:46:06.177Z,21.5
2017-04-08T13:47:16.107Z,21.5
2017-04-08T13:48:26.350Z,21.54
2017-04-08T13:49:36.603Z,21.49
2017-04-08T13:50:46.525Z,21.54
2017-04-08T13:51:56.460Z,21.53
2017-04-08T13:53:06.710Z,21.53
2017-04-08T13:54:16.952Z,21.46
2017-04-08T13:55:26.885Z,21.44
2017-04-08T13:56:36.512Z,21.46
2017-04-08T13:57:46.747Z,21.35
2017-04-08T13:58:57.003Z,21.43
2017-04-08T14:00:07.264Z,21.37
2017-04-08T14:01:17.509Z,21.35
2017-04-08T14:02:27.441Z,21.35
2017-04-08T14:03:37.384Z,21.47
2017-04-08T14:04:47.632Z,21.47
2017-04-08T14:05:57.873Z,21.44
2017-04-08T14:07:07.800Z,21.37
2017-04-08T14:08:18.045Z,21.43
2017-04-08T14:09:27.972Z,21.46
2017-04-08T14:10:37.600Z,21.43
2017-04-08T14:11:47.532Z,21.35
2017-04-08T14:12:57.776Z,21.38
2017-04-08T14:14:07.404Z,21.37
2017-04-08T14:15:17.018Z,21.49
2017-04-08T14:16:27.256Z,21.46
2017-04-08T14:17:37.496Z,21.43
2017-04-08T14:18:47.135Z,21.49
2017-04-08T14:19:57.068Z,21.46
2017-04-08T14:21:07.310Z,21.47
2017-04-08T14:22:17.245Z,21.35
2017-04-08T14:23:27.490Z,21.38
2017-04-08T14:24:37.428Z,21.46
2017-04-08T14:25:47.357Z,21.49
2017-04-08T14:26:57.593Z,21.42
2017-04-08T14:28:07.521Z,21.53
2017-04-08T14:29:17.462Z,21.56
2017-04-08T14:30:27.715Z,21.5
2017-04-08T14:31:37.956Z,21.58
2017-04-08T14:32:48.200Z,21.56
2017-04-08T14:33:58.441Z,21.52
2017-04-08T14:35:08.691Z,21.56
2017-04-08T14:36:18.937Z,21.47
2017-04-08T14:37:28.550Z,21.53
2017-04-08T14:38:38.166Z,21.38
2017-04-08T14:39:48.417Z,21.52
2017-04-08T14:40:58.695Z,21.49
2017-04-08T14:42:08.310Z,21.59
2017-04-08T14:43:18.250Z,21.54
2017-04-08T14:44:27.908Z,21.53
2017-04-08T14:45:37.834Z,21.52
2017-04-08T14:46:47.765Z,21.5
2017-04-08T14:47:57.710Z,21.44
2017-04-08T14:49:07.646Z,21.58
2017-04-08T14:50:17.888Z,21.52
2017-04-08T14:51:27.499Z,21.52
2017-04-08T14:52:37.735Z,21.52
2017-04-08T14:53:47.657Z,21.52
2017-04-08T14:54:57.583Z,21.54
2017-04-08T14:56:07.826Z,21.5
2017-04-08T14:57:17.760Z,21.54
2017-04-08T14:58:27.686Z,21.49
2017-04-08T14:59:37.614Z,21.53
2017-04-08T15:00:47.860Z,21.56
2017-04-08T15:01:57.794Z,21.61
2017-04-08T15:03:07.723Z,21.54
2017-04-08T15:04:17.966Z,21.52